Time;durP1;ratioP1;P1;durP2;ratioP2;P2;SDS_P1;SDS_P2;PMS_P1;PMS_P2;Temp;Humidity;BMP_temperature;BMP_pressure;BME280_temperature;BME280_humidity;BME280_pressure;Samples;Min_cycle;Max_cycle;Signal;HPM_P1;HPM_P2
2022/12/17 13:07:04;;;;;;;;;;;;;;;;;;6140491;23;20630;-85
2022/12/17 13:54:10;;;;;;;;;;;;;;;;;;6137388;23;19984;-83
2022/12/17 13:56:48;;;;;;;;;;;;;;;;;;6136456;23;19917;-83
2022/12/17 13:59:33;;;;;;;;;;;;;;;;;;;;;
2022/12/17 14:20:48;;;;;;;;;;;;;;;;;;6216541;22;19919;-83
2022/12/17 14:23:14;;;;;;;;;;;;;;;;;;6230979;22;20391;-83
2022/12/17 14:25:49;;;;;;;;;;;;;;;;;;6225168;22;19985;-83
2022/12/17 14:28:36;;;;;;;;;;;;;;;;;;6207987;22;19925;-83
2022/12/17 14:31:08;;;;;;;;;;;;;;;;;;6200777;22;19919;-83
2022/12/17 14:33:34;;;;;;;;;;;;;;;;;;6201455;22;19923;-83
2022/12/17 14:36:00;;;;;;;;;;;;;;;;;;6198499;22;20407;-83
2022/12/17 14:38:32;;;;;;;;;;;;;;;;;;6205814;22;19982;-83
2022/12/17 14:40:58;;;;;;;;;;;;;;;;;;6194955;22;20467;-83
2022/12/17 14:43:32;;;;;;;;;;;;;;;;;;6233884;22;20004;-83
2022/12/17 14:46:28;;;;;;;;;;;;;;;;;;5074259;27;19932;-84
2022/12/17 14:49:21;;;;;;;;;;;;;;;;;;;;;
2022/12/17 14:52:01;;;;;;;;;;;;;;;;;;5043972;28;19974;-84
2022/12/17 14:54:30;;;;;;;;;;;;;;;;;;5056952;28;19920;-84
2022/12/17 14:56:59;;;;;;;;;;;;;;;;;;5049189;28;20294;-84
2022/12/17 14:59:28;;;;;;;;;;;;;;;;;;5056301;28;19929;-85
2022/12/17 15:01:54;;;;;;;;;;;;;;;;;;5051461;28;19975;-84
2022/12/17 15:04:33;;;;;;;;;;;;;;;;;;;;;
2022/12/17 15:07:14;;;;;;;;;;;;;;;;;;5071639;28;19986;-84
2022/12/17 15:09:42;;;;;;;;;;;;;;;;;;5047526;28;19998;-84
2022/12/17 15:12:11;;;;;;;;;;;;;;;;;;5048220;28;20598;-84
2022/12/17 15:14:37;;;;;;;;;;;;;;;;;;5048075;28;20362;-84
2022/12/17 15:17:11;;;;;;;;;;;;;;;;;;5053273;28;19931;-84
2022/12/17 15:19:53;;;;;;;;;;;;;;;;;;;;;
2022/12/17 15:22:22;;;;;;;;;;;;;;;;;;5067424;28;20306;-85
2022/12/17 15:27:46;;;;;;;;;;;;;;;;;;5026254;28;19948;-84
2022/12/17 15:30:15;;;;;;;;;;;;;;;;;;5032180;28;20229;-84
2022/12/17 15:33:05;;;;;;;;;;;;;;;;;;5045177;28;19928;-84
2022/12/17 15:35:39;;;;;;;;;;;;;;;;;;5025513;28;19932;-84
2022/12/17 15:38:11;;;;;;;;;;;;;;;;;;5028267;28;20311;-84
2022/12/17 15:40:37;;;;;;;;;;;;;;;;;;5041538;28;19925;-84
2022/12/17 15:43:21;;;;;;;;;;;;;;;;;;5017943;28;19925;-84
2022/12/17 15:45:47;;;;;;;;;;;;;;;;;;5010462;28;19928;-84
2022/12/17 15:48:13;;;;;;;;;;;;;;;;;;5018396;28;19935;-84
2022/12/17 15:50:39;;;;;;;;;;;;;;;;;;5014724;28;20591;-84
2022/12/17 16:09:09;;;;;;;;;;;;;;;;;;5617159;22;19943;-83
2022/12/17 16:11:35;;;;;;;;;;;;;;;;;;5008229;28;20361;-83
2022/12/17 16:14:14;;;;;;;;;;;;;;;;;;;;;
2022/12/17 16:16:58;;;;;;;;;;;;;;;;;;4925382;28;22538;-83
2022/12/17 16:19:24;;;;;;;;;;;;;;;;;;4980841;28;19924;-83
2022/12/17 16:21:50;;;;;;;;;;;;;;;;;;4970200;28;20023;-83
2022/12/17 16:27:24;;;;;;;;;;;;;;;;;;4985711;28;19960;-83
2022/12/17 16:36:23;;;;;;;;;;;;;;;;;;4921739;28;20823;-83
2022/12/17 16:38:48;;;;;;;;;;;;;;;;;;4964210;28;20340;-83
2022/12/17 16:41:14;;;;;;;;;;;;;;;;;;5004618;28;21426;-83
2022/12/17 16:43:40;;;;;;;;;;;;;;;;;;4985681;28;20403;-83
2022/12/17 16:46:06;;;;;;;;;;;;;;;;;;4998291;28;19956;-83
2022/12/17 16:48:32;;;;;;;;;;;;;;;;;;5003363;28;19952;-83
2022/12/17 16:50:58;;;;;;;;;;;;;;;;;;4998584;28;19956;-83
2022/12/17 16:53:24;;;;;;;;;;;;;;;;;;4971796;28;19936;-83
2022/12/17 16:55:50;;;;;;;;;;;;;;;;;;5014315;28;19935;-83
2022/12/17 16:58:16;;;;;;;;;;;;;;;;;;5014286;28;19986;-83
2022/12/17 17:00:42;;;;;;;;;;;;;;;;;;4999649;28;19932;-83
2022/12/17 17:03:08;;;;;;;;;;;;;;;;;;4976511;28;19929;-84
2022/12/17 17:05:34;;;;;;;;;;;;;;;;;;5004326;28;20023;-84
2022/12/17 17:08:00;;;;;;;;;;;;;;;;;;4983084;28;19929;-83
2022/12/17 17:10:26;;;;;;;;;;;;;;;;;;5020434;28;19970;-83
2022/12/17 17:12:52;;;;;;;;;;;;;;;;;;4998756;28;20044;-83
2022/12/17 17:15:18;;;;;;;;;;;;;;;;;;4983762;28;19929;-83
2022/12/17 17:17:44;;;;;;;;;;;;;;;;;;4976118;28;19933;-83
2022/12/17 17:20:10;;;;;;;;;;;;;;;;;;5019930;28;20412;-83
2022/12/17 17:22:36;;;;;;;;;;;;;;;;;;4978858;28;19936;-83
2022/12/17 17:25:02;;;;;;;;;;;;;;;;;;5014172;28;20757;-83
2022/12/17 17:27:28;;;;;;;;;;;;;;;;;;4968758;28;20010;-83
2022/12/17 17:39:48;;;;;;;;;;;;;;;;;;4854498;28;19938;-83
2022/12/17 18:47:00;;;;;;;;;;;;;;;;;;6258243;22;19946;-84
2022/12/17 19:59:26;;;;;;;;;;;;;;;;;;6238947;22;19919;-84
2022/12/17 22:45:48;;;;;;;;;;;;;;;;;;6259388;22;19950;-83
2022/12/17 22:48:24;;;;;;;;;;;;;;;;;;6240807;22;19914;-84
2022/12/17 22:54:17;;;;;;;;;;;;;;;;;;6302320;22;20425;-83
2022/12/17 22:56:59;;;;;;;;;;;;;;;;;;;;;
2022/12/17 22:59:54;;;;;;;;;;;;;;;;;;6250173;22;20029;-83
2022/12/17 23:02:28;;;;;;;;;;;;;;;;;;6238162;22;19926;-84
2022/12/17 23:05:21;;;;;;;;;;;;;;;;;;6236892;22;20046;-82
2022/12/17 23:08:12;;;;;;;;;;;;;;;;;;6257045;22;19919;-83
2022/12/17 23:13:38;;;;;;;;;;;;;;;;;;6263768;22;19925;-83
2022/12/17 23:16:07;;;;;;;;;;;;;;;;;;6250314;22;19919;-83
2022/12/17 23:18:46;;;;;;;;;;;;;;;;;;6235951;22;20332;-84
2022/12/17 23:21:12;;;;;;;;;;;;;;;;;;6239231;22;19923;-83
2022/12/17 23:23:38;;;;;;;;;;;;;;;;;;6292386;22;20290;-83
2022/12/17 23:26:04;;;;;;;;;;;;;;;;;;6259659;22;19950;-83
2022/12/17 23:28:30;;;;;;;;;;;;;;;;;;6240216;22;19919;-83
2022/12/17 23:30:56;;;;;;;;;;;;;;;;;;6262073;22;20185;-83
2022/12/17 23:33:22;;;;;;;;;;;;;;;;;;6264429;22;19935;-83
2022/12/17 23:35:48;;;;;;;;;;;;;;;;;;6264531;22;20375;-83
2022/12/17 23:38:14;;;;;;;;;;;;;;;;;;6239206;22;19926;-83
2022/12/17 23:40:40;;;;;;;;;;;;;;;;;;6237760;22;19946;-83
2022/12/17 23:43:05;;;;;;;;;;;;;;;;;;6239808;22;20335;-83
2022/12/17 23:45:32;;;;;;;;;;;;;;;;;;6260431;22;19918;-83
2022/12/17 23:47:58;;;;;;;;;;;;;;;;;;6261838;22;19919;-83
2022/12/17 23:50:24;;;;;;;;;;;;;;;;;;6238812;22;19919;-83
2022/12/17 23:52:50;;;;;;;;;;;;;;;;;;6263790;22;19930;-83
2022/12/17 23:55:16;;;;;;;;;;;;;;;;;;6266310;22;20407;-83
2022/12/17 23:57:42;;;;;;;;;;;;;;;;;;6262118;22;19919;-82
